Ride Results

Tom Quilty Gold Cup (08-06-1985)
Ride distance: 160.0 km

Outcomes - Tom Quilty Gold Cup (08-06-1985)
Division No. of Entries Retired / DNE Completed Withdrawn Ineligible V/O Percentage Completed
OP 76 - 40 7 1 28 52.63%
LW 17 - 14 - - 3 82.35%
JN 8 - 4 - - 4 50.00%
Totals 101 - 58 7 1 35 57.43%
Results - Tom Quilty Gold Cup (08-06-1985)
No. Rider Horse Place Time Leg Speeds Total
Km/Hr
H/R bpm
Open
38 Jenny Oliver Glenallan Soloman 1 10:04:00 18.1, 11.9, 14.3, 23.0 15.89 32, 38, 45, 50, 48 (Avg:45)
56 Terry Wood Andarra Shareef 2 10:39:00 17.2, 11.7, 13.8, 19.6 15.02 30, 40, 47, 46, 48 (Avg:45)
5 Kyle Dimmock Nulliga 3 11:43:00 17.3, 11.3, 12.2, 15.1 13.66 39, 41, 46, 53, 46 (Avg:46)
70 Alan Mackinder Arabian Park Amierr 3 (BC) 11:43:00 16.4, 11.1, 13.1, 15.1 13.66 32, 36, 40, 44, 42 (Avg:40)
100 Bernie Harris Warrondi Dione 5 12:13:00 17.6, 11.4, 11.2, 13.8 13.10 30, 49, 44, 48, 50 (Avg:47)
74 Mark Johnson Champ 6 12:30:00 17.2, 11.7, 11.0, 12.7 12.80 40, 48, 53, 52, 52 (Avg:51)
3 Wayne Braithwaite Dunroven Girl 7 12:35:00 14.9, 10.4, 10.2, 18.4 12.72 36, 42, 46, 45, 46 (Avg:44)
10 David Marshall Rivolli Snow Duke 8 12:55:00 15.2, 10.3, 10.2, 15.9 12.39 36, 44, 52, 43, 51 (Avg:47)
42 Tony Marshall Mr-Magoo 9 13:00:00 16.6, 11.0, 10.5, 12.5 12.31 35, 46, 56, 37, 50 (Avg:47)
17 Colin Black Hargee 10 13:07:00 16.4, 10.4, 11.2, 12.1 12.20 26, 40, 45, 44, 42 (Avg:42)
47 Bernice King Beau Nicholas 11 13:57:00 13.8, 9.6, 9.0, 15.8 11.47 36, 39, 43, 48, 48 (Avg:44)
6 Dianne Georgeff Jedda 12 14:01:00 16.9, 8.5, 8.8, 16.4 11.41 34, 42, 45, 53, 60 (Avg:50)
75 Colin Pitstock Cobber 12 14:01:00 13.1, 9.8, 9.0, 16.1 11.41 32, 34, 45, 42, 40 (Avg:40)
99 Matthew Krahnen Thunder 14 14:20:00 16.9, 9.9, 9.1, 11.1 11.16 33, 43, 46, 46, 48 (Avg:45)
60 Paul Krahnen Pancho 14 14:20:00 16.9, 9.9, 9.1, 11.1 11.16 32, 37, 48, 51, 48 (Avg:46)
45 Graham Williams True Blue 16 14:31:00 17.2, 10.0, 7.5, 13.6 11.02 36, 41, 50, 52, 45 (Avg:47)
1 Kerry Anderson Con 17 14:50:00 13.3, 9.8, 8.9, 12.1 10.79 38, 42, 54, 58, 52 (Avg:51)
39 Warwick Sinfield Burer 18 14:53:00 14.1, 8.8, 8.4, 14.4 10.75 32, 41, 50, 52, 42 (Avg:46)
63 Robin Cameron Ribol Light 19 14:59:00 12.9, 8.5, 9.2, 13.9 10.68 40, 48, 46, 42, 52 (Avg:47)
37 Brad Innes Bellrowen Fireglow 20 15:12:00 14.7, 8.8, 8.2, 12.9 10.53 31, 40, 47, 45, 44 (Avg:44)
64 Patsie Manning Juanita 21 15:13:00 14.1, 8.1, 8.8, 13.4 10.51 32, 35, 38, 44, 42 (Avg:39)
48 John Gilbert Jindale Joker 22 15:58:00 14.5, 8.9, 8.7, 9.5 10.02 36, 46, 56, 58, 57 (Avg:54)
30 Kit Oshannessy Sharahd Mariner 23 16:39:00 13.1, 8.5, 8.9, 8.9 9.61 38, 39, 52, 60, 40 (Avg:47)
23 Betty Serpell Faraway Reckless 23 16:39:00 11.4, 8.5, 8.9, 9.8 9.61 33, 40, 50, 48, 42 (Avg:45)
21 Trevor Crotty Tassie Drifter 25 16:58:00 12.1, 8.3, 7.8, 10.4 9.43 34, 39, 50, 49, 42 (Avg:45)
86 Frank Mollema Tao 25 16:58:00 14.7, 8.1, 7.7, 9.5 9.43 35, 46, 47, 50, 45 (Avg:47)
25 Mike Oloughlin Zaheer 25 16:58:00 14.7, 8.7, 7.2, 9.5 9.43 33, 32, 40, 38, 42 (Avg:38)
84 Tony Parker Inala Flash Boy 28 17:09:00 13.5, 8.5, 8.7, 8.1 9.33 34, 44, 48, 55, 45 (Avg:48)
93 Sue Parsons Karumba Travellers Joy 28 17:09:00 11.4, 8.5, 8.3, 9.5 9.33 34, 36, 48, 40, 50 (Avg:43)
13 Barry Robertson Rick 28 17:09:00 14.1, 8.1, 8.6, 8.3 9.33 36, 45, 42, 45, 44 (Avg:44)
57 Rowena Robinson Deakin Blue 28 17:09:00 14.7, 8.3, 7.9, 8.7 9.33 34, 50, 49, 54, 46 (Avg:49)
95 Jodie Scholz Onegin 32 17:09:01 11.4, 8.7, 8.1, 9.5 9.33 30, 39, 52, 50, 51 (Avg:48)
26 Craig Ryhorchuk Sweet Skeet 33 17:13:00 13.8, 8.2, 8.6, 8.2 9.29 36, 45, 48, 57, 57 (Avg:51)
91 John Ailmore Warrondi Cammella 34 17:35:00 11.5, 8.0, 7.4, 10.6 9.10 45, 45, 49, 44, 44 (Avg:45)
58 Alan Lindsay Arowana Mamaragan 34 17:35:00 11.0, 8.0, 7.9, 10.0 9.10 30, 39, 48, 42, 48 (Avg:44)
27 Maxine Hazel Warrondi Feu-Dor 36 17:36:00 12.3, 8.0, 7.1, 10.6 9.09 32, 33, 45, 50, 40 (Avg:42)
90 Greg Burford Hawkesbury Chablis 37 17:39:00 11.6, 7.7, 7.5, 10.7 9.07 37, 52, 59, 56, 48 (Avg:53)
72 Daniel Mannix Ralvon Aeneas 38 17:45:00 11.7, 7.7, 7.5, 10.3 9.01 44, 42, 42, 47, 40 (Avg:42)
54 Michael Bennet Lassiter 39 17:47:00 12.2, 8.1, 7.3, 9.6 9.00 31, 44, 45, 49, 44 (Avg:45)
46 Susan Derks Legs Diamond 39 17:47:00 12.1, 8.1, 7.3, 9.6 9.00 29, 42, 48, 50, 45 (Avg:46)
4 Cathryn Deudney Pevency Chico Heart Rate L4 0:00:00 12.0, 8.1, 7.3, 10.1 - 38, 41, 60, 51, 64 (Avg:54)
83 Ron Hall Franklin Jasif Lame L4 0:00:00 13.8, 8.0, 8.0, 7.7 - 35, 40, 52, 51, 52 (Avg:48)
78 Barry Hall Surf Side Jabal Nefous Lame L4 0:00:00 13.6, 9.3, 9.1, 12.8 - 35, 44, 47, 48, 44 (Avg:45)
101 Doug Lockhart Pied Piper Lame L4 0:00:00 15.9, 9.9, 10.2, 20.8 - 33, 49, 49, 47, 47 (Avg:48)
61 John Toase Smokey Joe Lame L4 0:00:00 11.6, 7.7, 7.5, 10.7 - 38, 45, 45, 55, 55 (Avg:50)
67 Allan Caslick Briarsfield Selena Lame L3 0:00:00 18.1, 11.7, 11.0 - 35, 48, 53, 51 (Avg:50)
65 Terri Chandler Flash Air Lame L3 0:00:00 14.4, 8.1, 7.9 - 38, 45, 44, 48 (Avg:45)
98 Gordon Flaherty Eumerella Phaeton Lame L3 0:00:00 16.9, 8.5, 8.7 - 33, 40, 48, 59 (Avg:49)
24 Tony Ingersole Gala Heart Rate L3 0:00:00 11.6, 8.4, 7.4 - 36, 44, 51, 72 (Avg:55)
77 Noel Morrow Jezza Lame L3 0:00:00 10.8, 8.3, 7.4 - 37, 45, 53, 51 (Avg:49)
68 Julie Reay Hilton Heart Rate L3 0:00:00 12.2, 8.3, 7.7 - 36, 36, 45, 64 (Avg:48)
15 Ian Stockley Aloha Dominus Lame L3 0:00:00 11.0, 8.1, 7.8 - 33, 39, 48, 42 (Avg:43)
34 Andrew Ailmore Warrondi Beercan Lame L2 0:00:00 11.5, 8.0 - 34, 40, 40 (Avg:40)
2 Kay Black Yeanbah Beyim Lame L2 0:00:00 12.9, 7.1 - 35, 52, 59 (Avg:55)
73 Philip Blackley Dunwingeri Murdan Withdrawn L2 0:00:00 - - 30, 44, 50 (Avg:47)
71 Kevin Bohm Kelkette Park Izak Heart Rate L2 0:00:00 14.8, 9.2 - 32, 42, 63 (Avg:52)
92 Paul Chandler Cyclone Withdrawn L2 0:00:00 - - 34, 48, 57 (Avg:52)
62 Chris Gates Larabon Jabalka Out of Time L2 0:00:00 14.1, 7.6 - 34, 52, 53 (Avg:52)
88 Sue Harlum Ralvon Overlander Heart Rate L2 0:00:00 11.3, 8.0 - 42, 46, 63 (Avg:54)
32 Mark Hinton Mahomed Lame L2 0:00:00 15.1, 10.2 - 29, 43, 43 (Avg:43)
44 Searle Johnston Shinda Heart Rate L2 0:00:00 16.3, 9.7 - 34, 42, 63 (Avg:52)
7 Stephen Jung Sanroblee Sparkle Withdrawn L2 0:00:00 - - 37, 45, 49 (Avg:47)
59 Helen Lindsay Burremah Djerribindo Lame L2 0:00:00 14.6, 9.5 - 31, 42, 49 (Avg:45)
80 Ron Malone Shamirah Lame L2 0:00:00 16.6, 11.0 - 25, 38, 48 (Avg:43)
11 Ronald Martin Flame Lame L2 0:00:00 15.0, 10.7 - 34, 41, 52 (Avg:46)
50 Judy Shore Summerland Robreyn Withdrawn L2 0:00:00 - - 33, 46, 50 (Avg:48)
51 Mark Cameron Nilgarem Prince Lame L1 0:00:00 11.6 - 37, 45 (Avg:45)
76 Peter Cole Chip Chase Sadaqa Withdrawn L1 0:00:00 - - 38, 40 (Avg:40)
41 Dennis Dyason Tilden Zechin Lame L1 0:00:00 10.3 - 40, 52 (Avg:52)
20 Paul Krause Sam Lame L1 0:00:00 12.1 - 33, 41 (Avg:41)
97 June Petersen Abbeline Natasha Withdrawn L1 0:00:00 - - 40, 46 (Avg:46)
52 Jenny Robertson Zac Lame L1 0:00:00 12.0 - 50, 48 (Avg:48)
14 Rebecca Smith Gaucho Lame L1 0:00:00 13.3 - 48, 46 (Avg:46)
87 Ian Vitnell Sargeant Lame L1 0:00:00 12.1 - 42, 39 (Avg:39)
66 Arthur Waghorn Petrenah Al Naram Lame L1 0:00:00 12.1 - 36, 51 (Avg:51)
53 Howard Harris Oonoonba Leo Withdrawn P/R 0:00:00 - - 40
Lightweight
28 Michelle Stafford Spook 1 12:20:00 16.4, 9.8, 10.2, 20.8 12.97 35, 42, 47, 52, 52 (Avg:48)
94 Sally Cowan Junior 2 (BC) 12:23:00 15.8, 10.0, 9.9, 21.4 12.92 34, 45, 49, 43, 44 (Avg:45)
8 Marion Kennedy Red Gum 3 12:55:00 14.7, 9.4, 11.3, 16.5 12.39 40, 42, 44, 46, 42 (Avg:43)
29 Helen Field Kynan 4 14:00:00 14.7, 9.3, 8.8, 16.2 11.43 33, 40, 42, 44, 54 (Avg:45)
36 Raylee Siebhur Sharayleesa Vanity Joy 5 14:48:00 15.9, 10.0, 7.9, 12.2 10.81 40, 53, 60, 50, 48 (Avg:52)
82 Judith Burton Abbeline Chantel 6 14:59:00 12.9, 8.5, 9.2, 13.9 10.68 36, 40, 46, 41, 48 (Avg:43)
9 Cathy Macken Mindari Taman 7 17:08:00 12.9, 8.2, 7.9, 9.5 9.34 32, 40, 42, 47, 48 (Avg:44)
89 Cathy Mccallum Linden Sami 7 17:08:00 11.3, 8.6, 9.4, 8.3 9.34 37, 35, 40, 48, 42 (Avg:41)
96 Carol Sparkes Zamfir 7 17:08:00 14.7, 8.5, 8.0, 8.3 9.34 28, 36, 43, 44, 38 (Avg:40)
79 Kim Sheppard Kismayo 10 17:25:00 11.9, 8.4, 7.4, 10.0 9.19 32, 41, 50, 47, 45 (Avg:45)
81 Frances Bailey Hullabaloo Shiraz 11 17:27:00 12.2, 8.3, 7.6, 9.5 9.17 30, 41, 48, 45, 44 (Avg:44)
16 Marianne Stuart Bow 12 17:28:00 12.9, 8.4, 8.0, 8.5 9.16 35, 44, 48, 48, 46 (Avg:46)
49 Rachel Harvey-Shore Judstan Masirah 13 17:47:00 11.9, 8.2, 7.5, 9.4 9.00 32, 45, 55, 59, 58 (Avg:54)
69 Ursula Quinn Mayrah 13 17:47:00 11.0, 8.0, 7.9, 9.6 9.00 39, 39, 52, 52, 53 (Avg:49)
18 Wayne Francis Diamond Heart Rate L1 0:00:00 10.7 - 34, 56 (Avg:56)
19 Lorraine Muller Wagga Countdeck Heart Rate L1 0:00:00 14.7 - 44, 65 (Avg:65)
40 Kathryn Dyason Lobo Lame P/R 0:00:00 - - 35
Junior
43 Scott Mckillop Little Boy 1 (BC) 12:31:00 17.2, 11.7, 11.4, 12.1 12.78 42, 40, 44, 58, 48 (Avg:47)
22 Dominic Krahnen Pinto 2 14:20:00 16.9, 9.9, 9.1, 11.1 11.16 33, 33, 51, 49, 48 (Avg:45)
85 Rachel Benad Pi- 3 17:35:00 12.1, 8.1, 7.9, 9.1 9.10 34, 39, 45, 53, 45 (Avg:45)
55 Cheryl Strachan Ralvon Shareyim 4 17:46:00 12.0, 8.4, 7.7, 8.8 9.01 32, 40, 50, 49, 39 (Avg:44)
33 Sheryl Murdan Serendipity Lame L4 0:00:00 13.6, 9.3, 9.1, 12.8 - 31, 39, 47, 46, 42 (Avg:43)
35 Sharon Black Glenallan Dhahai Lame L3 0:00:00 12.9, 8.6, 8.6 - 32, 43, 45, 48 (Avg:45)
31 Robert Benson Grey Sovereign Lame L2 0:00:00 12.3, 8.0 - 33, 37, 44 (Avg:40)
12 Bruce Neal Kelkette Park Twain Lame L2 0:00:00 14.9, 8.4 - 31, 40, 54 (Avg:47)